»·PEaware :: N370BC KSAN-KSNA

N370BC :: KSAN-KSNA

FLIGHT INFORMATION

Flight Status: Arrived
Operator: Privately registered:
United States
More flights under this callsign
Pilot: Alex K. (14822)
Aircraft: BOEING 737-200
(B732)
More flights by this aircraft type
Origin: KSAN San Diego Intl-Lindbergh
United States
Destination: KSNA John Wayne-Orange Co
United States
More flights between these airports :: More routes between these airports
Route: +PEBLE6 SLI
File this flight plan on PilotEdge
Remarks: FUNCTIONALLY / W, TESTING NEWLY INSTALLED INS
Altitude:
(Current/Filed)
16,000ft
Speed:
(Current/Filed)
368kts
Departed: 04-Oct-18 02:44 PM
Arrived: 04-Oct-18 03:39 PM
Distance/Time
Traveled:
66nm/0:55
Distance/Time
To Go:
Arrived

Flight Plot

Page will automatically refresh every two minutes.


Map Options




Map Legend


Flown Route
Filed Route
Departure Airport
Arrival Airport
Navaid (VOR, NDB)
Fix

Horizontal Profiles

Position Reports

Time Latitude Longitude Heading Altitude Ground
Speed
04-Oct-18 13:42 32.732158 -117.176548 194 24ft 0kts
04-Oct-18 13:43 32.732158 -117.176548 194 24ft 0kts
04-Oct-18 13:44 32.732158 -117.176548 194 24ft 0kts
04-Oct-18 13:45 32.732158 -117.176548 194 24ft 0kts
04-Oct-18 13:46 32.732158 -117.176548 194 24ft 0kts
04-Oct-18 13:47 32.732158 -117.176548 194 24ft 0kts
04-Oct-18 13:48 32.732158 -117.176548 194 24ft 0kts
04-Oct-18 13:49 32.732158 -117.176548 194 24ft 0kts
04-Oct-18 13:50 32.732158 -117.176548 194 24ft 0kts
04-Oct-18 13:51 32.732158 -117.176548 194 24ft 0kts
04-Oct-18 13:52 32.732158 -117.176548 194 24ft 0kts
04-Oct-18 13:53 32.732158 -117.176548 194 24ft 0kts
04-Oct-18 13:54 32.732158 -117.176548 194 24ft 0kts
04-Oct-18 13:55 32.732158 -117.176548 194 24ft 0kts
04-Oct-18 13:56 32.732158 -117.176548 194 24ft 0kts
04-Oct-18 13:57 32.732158 -117.176548 194 24ft 0kts
04-Oct-18 13:58 32.732158 -117.176548 194 24ft 0kts
04-Oct-18 13:59 32.732158 -117.176548 194 24ft 0kts
04-Oct-18 14:00 32.732158 -117.176548 194 24ft 0kts
04-Oct-18 14:01 32.732158 -117.176548 194 24ft 0kts
04-Oct-18 14:02 32.732158 -117.176548 194 24ft 0kts
04-Oct-18 14:03 32.732158 -117.176548 194 24ft 0kts
04-Oct-18 14:04 32.732158 -117.176548 194 24ft 0kts
04-Oct-18 14:05 32.732158 -117.176548 194 24ft 0kts
04-Oct-18 14:06 32.732158 -117.176548 194 24ft 0kts
04-Oct-18 14:07 32.732158 -117.176548 194 24ft 0kts
04-Oct-18 14:08 32.732158 -117.176548 194 24ft 0kts
04-Oct-18 14:09 32.732158 -117.176548 194 24ft 0kts
04-Oct-18 14:10 32.732158 -117.176548 194 24ft 0kts
04-Oct-18 14:11 32.732158 -117.176548 194 24ft 0kts
04-Oct-18 14:12 32.732158 -117.176548 194 24ft 0kts
04-Oct-18 14:13 32.732158 -117.176548 194 24ft 0kts
04-Oct-18 14:14 32.732158 -117.176548 194 24ft 0kts
04-Oct-18 14:15 32.732158 -117.176548 194 24ft 0kts
04-Oct-18 14:16 32.732158 -117.176548 194 24ft 0kts
04-Oct-18 14:17 32.732158 -117.176548 194 24ft 0kts
04-Oct-18 14:18 32.732158 -117.176548 194 24ft 0kts
04-Oct-18 14:19 32.732158 -117.176548 194 24ft 0kts
04-Oct-18 14:20 32.732158 -117.176548 194 24ft 0kts
04-Oct-18 14:21 32.732158 -117.176548 194 24ft 0kts
04-Oct-18 14:22 32.732158 -117.176548 194 24ft 0kts
04-Oct-18 14:23 32.732158 -117.176548 194 24ft 0kts
04-Oct-18 14:24 32.732158 -117.176548 194 24ft 0kts
04-Oct-18 14:25 32.732158 -117.176548 194 24ft 0kts
04-Oct-18 14:26 32.732158 -117.176548 194 24ft 0kts
04-Oct-18 14:27 32.732158 -117.176548 194 24ft 0kts
04-Oct-18 14:28 32.732158 -117.176548 194 24ft 0kts
04-Oct-18 14:29 32.732158 -117.176548 194 24ft 0kts
04-Oct-18 14:30 32.732158 -117.176548 194 24ft 0kts
04-Oct-18 14:31 32.732158 -117.176548 194 24ft 0kts
04-Oct-18 14:32 32.732158 -117.176548 194 24ft 0kts
04-Oct-18 14:33 32.732158 -117.176548 194 24ft 0kts
04-Oct-18 14:34 32.731913 -117.176618 193 24ft 9kts
04-Oct-18 14:35 32.731304 -117.176329 113 24ft 0kts
04-Oct-18 14:36 32.731304 -117.176329 113 24ft 0kts
04-Oct-18 14:37 32.731304 -117.176329 113 24ft 0kts
04-Oct-18 14:38 32.731304 -117.176329 113 24ft 0kts
04-Oct-18 14:39 32.731304 -117.176329 113 24ft 0kts
04-Oct-18 14:40 32.731304 -117.176329 113 24ft 0kts
04-Oct-18 14:41 32.731304 -117.176329 113 24ft 0kts
04-Oct-18 14:42 32.731304 -117.176329 113 24ft 0kts
04-Oct-18 14:43 32.731279 -117.176257 111 24ft 2kts
04-Oct-18 14:44 32.730963 -117.175488 144 24ft 0kts
04-Oct-18 14:45 32.730207 -117.175773 276 24ft 15kts
04-Oct-18 14:46 32.741246 -117.210298 303 1433ft 155kts
04-Oct-18 14:47 32.769740 -117.260037 304 4395ft 214kts
04-Oct-18 14:48 32.806012 -117.323152 304 7877ft 256kts
04-Oct-18 14:49 32.848051 -117.396274 304 10944ft 291kts
04-Oct-18 14:50 32.900006 -117.477595 325 12012ft 353kts
04-Oct-18 14:51 32.978644 -117.534331 323 11996ft 333kts
04-Oct-18 14:52 33.036897 -117.616015 308 11999ft 331kts
04-Oct-18 14:53 33.083347 -117.687257 307 11999ft 329kts
04-Oct-18 14:54 33.083347 -117.687257 307 11999ft 329kts
04-Oct-18 14:55 33.083347 -117.687257 307 11999ft 329kts
04-Oct-18 14:56 33.083347 -117.687257 307 11999ft 329kts
04-Oct-18 14:57 33.083347 -117.687257 307 11999ft 329kts
04-Oct-18 14:58 33.083347 -117.687257 307 11999ft 329kts
04-Oct-18 14:59 33.083347 -117.687257 307 11999ft 329kts
04-Oct-18 15:00 33.083347 -117.687257 307 11999ft 329kts
04-Oct-18 15:01 33.083347 -117.687257 307 11999ft 329kts
04-Oct-18 15:02 33.083347 -117.687257 307 11999ft 329kts
04-Oct-18 15:03 33.083347 -117.687257 307 11999ft 329kts
04-Oct-18 15:04 33.083347 -117.687257 307 11999ft 329kts
04-Oct-18 15:05 33.083347 -117.687257 307 11999ft 329kts
04-Oct-18 15:06 33.083347 -117.687257 307 11999ft 329kts
04-Oct-18 15:07 33.083347 -117.687257 307 11999ft 329kts
04-Oct-18 15:08 33.123291 -117.748907 307 12013ft 361kts
04-Oct-18 15:09 33.176325 -117.830541 307 12005ft 390kts
04-Oct-18 15:10 33.265949 -117.885886 356 12013ft 388kts
04-Oct-18 15:11 33.352669 -117.901503 357 11062ft 338kts
04-Oct-18 15:12 33.431061 -117.870507 22 9534ft 289kts
04-Oct-18 15:13 33.497359 -117.837387 22 8208ft 257kts
04-Oct-18 15:14 33.561404 -117.805367 22 7999ft 257kts
04-Oct-18 15:15 33.625816 -117.773138 22 7999ft 256kts
04-Oct-18 15:16 33.688596 -117.741695 22 7925ft 251kts
04-Oct-18 15:17 33.748860 -117.711487 22 6709ft 252kts
04-Oct-18 15:18 33.810659 -117.680478 22 6000ft 244kts
04-Oct-18 15:19 33.858144 -117.713499 266 5041ft 241kts
04-Oct-18 15:20 33.824028 -117.778096 231 3973ft 233kts
04-Oct-18 15:21 33.784841 -117.837732 231 3925ft 234kts
04-Oct-18 15:22 33.799054 -117.894785 354 4016ft 217kts
04-Oct-18 15:23 33.854426 -117.871917 22 4000ft 218kts
04-Oct-18 15:24 33.909455 -117.844197 22 4018ft 215kts
04-Oct-18 15:25 33.962407 -117.817495 22 4001ft 206kts
04-Oct-18 15:26 33.966474 -117.763164 130 4015ft 210kts
04-Oct-18 15:27 33.921247 -117.732933 190 4078ft 191kts
04-Oct-18 15:28 33.871769 -117.748631 200 3994ft 182kts
04-Oct-18 15:29 33.828136 -117.772560 206 3322ft 146kts
04-Oct-18 15:30 33.795287 -117.792763 207 2974ft 136kts
04-Oct-18 15:31 33.754134 -117.825638 240 2968ft 221kts
04-Oct-18 15:32 33.757881 -117.894031 288 2980ft 198kts
04-Oct-18 15:33 33.801152 -117.903491 12 2959ft 174kts
04-Oct-18 15:34 33.836107 -117.872456 80 2990ft 183kts
04-Oct-18 15:35 33.841892 -117.810433 107 2947ft 190kts
04-Oct-18 15:36 33.799008 -117.791266 200 2645ft 169kts
04-Oct-18 15:37 33.765431 -117.811881 207 1924ft 128kts
04-Oct-18 15:38 33.733630 -117.832066 207 1246ft 132kts
04-Oct-18 15:39 33.701729 -117.852318 207 540ft 132kts
04-Oct-18 15:40 33.672073 -117.871123 207 65ft 74kts
04-Oct-18 15:41 33.670445 -117.873560 8 65ft 0kts
04-Oct-18 15:42 33.674096 -117.871523 346 65ft 13kts
04-Oct-18 15:43 33.674469 -117.871922 310 65ft 0kts

Navigation Log

Ident Type
1. KSAN Airport
2. MELDY Fix
3. PEBLE Fix
4. SLI Navaid
5. KSNA Airport